Аэропорт: Емельяново. Красноярск

ICAO: UNKL

METAR:
2022-06-26 11:30:00
UNKL 261130Z 10002MPS 060V140 9999 SCT043 25/20 Q1001 R29/150060 NOSIG RMK QFE725
METAR:
2022-06-26 08:53:00
TAF AMD UNKL 260853Z 2608/2709 20003G08MPS 6000 -TSRAGR SCT030CB TEMPO 2608/2610 25010G24MPS 0800 +TSRAGR SQ BECMG 2610/2612 19003G08MPS 9999 NSW BECMG 2622/2624 25007G16MPS TEMPO 2705/2709 -TSRAGR